Portada
METAR-TAF:

METAR-TAF

Aeroports :

São Paulo, São Paulo, Brasil

latitud: 23-31S, longitud: 046-38W, altitud: 722 m

Observació

L'informe es va fer fa 3 hores i 50 minuts, a les 02:00 UTC
Vent 6 kt del Sud-Est, variant entre Est/Nord-Est i Sud/Sud-Est
Temperatura 15°C
Humitat 88%
Pressió 1025 hPa
Visibilitat 10 km o més
Núvols disperses a una alçada de 1000 ft
Cel ennuvolat a una alçada de 1600 ft
Cel cobert a una alçada de 2200 ft

METAR: SBMT 220200Z 14006KT 060V160 9999 SCT010 BKN016 OVC022 15/13 Q1025

Hora: 02:50 (05:50 UTC)


TAF: manca

Observacions i pronòstics meteorològics de més de 4000 aeroports (METAR i TAF).

Les estacions disponibles són els punts grocs i vermells al mapa.

Posi el ratolí al punt desitjat per veure el nom de l'estació.

Feu clic per veure les observacions i els pronòstics meteorològics.

Per canviar el mapa: feu clic els botons verds amb una creu de color negre per apropar; al botó verd amb un guió per allunyar la imatge; o en les fletxes verdes per a mapes adjacents.


METAR-TAF: